Time;durP1;ratioP1;P1;durP2;ratioP2;P2;SDS_P1;SDS_P2;PMS_P1;PMS_P2;Temp;Humidity;BMP_temperature;BMP_pressure;BME280_temperature;BME280_humidity;BME280_pressure;Samples;Min_cycle;Max_cycle;Signal;HPM_P1;HPM_P2
2023/12/04 00:00:33;;;;;;;34.85;31.40;;;;;;;;;;5056731;28;20224;-80
2023/12/04 00:03:00;;;;;;;38.88;34.72;;;;;;;;;;5057137;28;20222;-80
2023/12/04 00:05:27;;;;;;;32.35;29.27;;;;;;;;;;5056505;28;20258;-78
2023/12/04 00:07:54;;;;;;;38.72;34.53;;;;;;;;;;5055414;28;20228;-79
2023/12/04 00:10:22;;;;;;;34.92;31.27;;;;;;;;;;5066852;28;20204;-80
2023/12/04 00:12:49;;;;;;;38.65;34.60;;;;;;;;;;5056714;28;20204;-79
2023/12/04 00:15:17;;;;;;;36.10;32.50;;;;;;;;;;5057141;28;20609;-79
2023/12/04 00:17:44;;;;;;;36.25;32.45;;;;;;;;;;5056537;28;20228;-80
2023/12/04 00:20:11;;;;;;;37.03;33.17;;;;;;;;;;5057280;28;20279;-78
2023/12/04 00:22:38;;;;;;;33.17;29.98;;;;;;;;;;5056691;28;20196;-80
2023/12/04 00:25:05;;;;;;;40.13;36.03;;;;;;;;;;5055740;28;20269;-79
2023/12/04 00:27:34;;;;;;;33.13;30.35;;;;;;;;;;5056980;28;20274;-78
2023/12/04 00:30:03;;;;;;;40.15;36.35;;;;;;;;;;5056012;28;20726;-80
2023/12/04 00:32:30;;;;;;;42.35;38.33;;;;;;;;;;5055946;28;20204;-79
2023/12/04 00:34:57;;;;;;;39.78;35.67;;;;;;;;;;5055462;28;20208;-79
2023/12/04 00:37:24;;;;;;;39.80;35.80;;;;;;;;;;5055959;28;20636;-79
2023/12/04 00:39:51;;;;;;;39.33;35.28;;;;;;;;;;5055819;28;20224;-78
2023/12/04 00:42:18;;;;;;;40.78;36.85;;;;;;;;;;5055610;28;20743;-79
2023/12/04 00:44:47;;;;;;;35.08;31.17;;;;;;;;;;5055293;28;20870;-78
2023/12/04 00:47:14;;;;;;;40.10;36.10;;;;;;;;;;5055940;28;20228;-79
2023/12/04 00:49:41;;;;;;;39.50;35.42;;;;;;;;;;5055291;28;20249;-79
2023/12/04 00:52:08;;;;;;;40.78;36.83;;;;;;;;;;5055676;28;20208;-78
2023/12/04 00:54:35;;;;;;;40.35;36.28;;;;;;;;;;5054615;28;20207;-79
2023/12/04 00:57:02;;;;;;;40.83;37.22;;;;;;;;;;5054944;28;20231;-78
2023/12/04 00:59:29;;;;;;;39.20;35.88;;;;;;;;;;5055463;28;20220;-79
2023/12/04 01:01:57;;;;;;;42.50;38.75;;;;;;;;;;5054361;28;20238;-78
2023/12/04 01:04:24;;;;;;;35.03;32.45;;;;;;;;;;5054257;28;20269;-78
2023/12/04 01:06:51;;;;;;;41.75;37.60;;;;;;;;;;5054311;28;20290;-79
2023/12/04 01:09:23;;;;;;;32.35;29.83;;;;;;;;;;5054471;28;20205;-78
2023/12/04 01:11:51;;;;;;;42.80;38.78;;;;;;;;;;5054262;28;20208;-77
2023/12/04 01:14:18;;;;;;;44.70;40.63;;;;;;;;;;5053637;28;20212;-78
2023/12/04 01:16:45;;;;;;;43.17;39.15;;;;;;;;;;5054257;28;20692;-79
2023/12/04 01:19:13;;;;;;;42.55;38.55;;;;;;;;;;5054838;28;20224;-78
2023/12/04 01:21:40;;;;;;;43.10;38.75;;;;;;;;;;5053764;28;20262;-79
2023/12/04 01:24:07;;;;;;;42.20;38.10;;;;;;;;;;5052633;28;20278;-78
2023/12/04 01:26:34;;;;;;;41.70;37.70;;;;;;;;;;5054169;28;20224;-78
2023/12/04 01:29:01;;;;;;;42.33;38.33;;;;;;;;;;5053088;28;20220;-79
2023/12/04 01:31:28;;;;;;;41.17;37.50;;;;;;;;;;5053939;28;20264;-79
2023/12/04 01:33:55;;;;;;;42.53;38.72;;;;;;;;;;5053729;28;20208;-79
2023/12/04 01:36:23;;;;;;;38.47;35.22;;;;;;;;;;5054401;28;20204;-79
2023/12/04 01:38:50;;;;;;;44.05;39.70;;;;;;;;;;5054190;28;20204;-80
2023/12/04 01:41:17;;;;;;;43.28;39.05;;;;;;;;;;5053652;28;20734;-79
2023/12/04 01:43:44;;;;;;;44.85;40.55;;;;;;;;;;5054585;28;20208;-79
2023/12/04 01:46:12;;;;;;;44.90;40.40;;;;;;;;;;5052964;28;20265;-78
2023/12/04 01:48:40;;;;;;;43.25;38.90;;;;;;;;;;5054872;28;20192;-79
2023/12/04 01:51:08;;;;;;;42.40;38.65;;;;;;;;;;5054161;28;20209;-78
2023/12/04 01:53:37;;;;;;;34.58;32.25;;;;;;;;;;5053305;28;20685;-77
2023/12/04 01:56:04;;;;;;;40.20;36.70;;;;;;;;;;5053224;28;20638;-78
2023/12/04 01:58:31;;;;;;;39.75;36.38;;;;;;;;;;5054744;28;20254;-79
2023/12/04 02:00:59;;;;;;;42.67;39.03;;;;;;;;;;5055033;28;20274;-79
2023/12/04 02:03:26;;;;;;;39.42;35.97;;;;;;;;;;5054536;28;20844;-79
2023/12/04 02:05:53;;;;;;;43.08;39.03;;;;;;;;;;5053912;28;20606;-79
2023/12/04 02:08:20;;;;;;;42.05;37.60;;;;;;;;;;5053680;28;20282;-78
2023/12/04 02:10:48;;;;;;;42.58;38.65;;;;;;;;;;5053318;28;20189;-78
2023/12/04 02:13:15;;;;;;;35.15;32.10;;;;;;;;;;5053461;28;20277;-78
2023/12/04 02:15:42;;;;;;;30.60;28.52;;;;;;;;;;5053392;28;20684;-78
2023/12/04 02:18:10;;;;;;;41.92;37.65;;;;;;;;;;5053515;28;20278;-79
2023/12/04 02:20:37;;;;;;;35.20;32.25;;;;;;;;;;5053242;28;20632;-78
2023/12/04 02:23:04;;;;;;;37.38;34.40;;;;;;;;;;5053740;28;20204;-79
2023/12/04 02:25:32;;;;;;;43.42;39.15;;;;;;;;;;5067113;28;20222;-79
2023/12/04 02:28:00;;;;;;;40.92;37.47;;;;;;;;;;5074238;28;20633;-79
2023/12/04 02:30:30;;;;;;;41.38;37.58;;;;;;;;;;5072803;28;20268;-79
2023/12/04 02:32:58;;;;;;;34.15;31.67;;;;;;;;;;5074477;28;20720;-78
2023/12/04 02:35:27;;;;;;;41.47;37.65;;;;;;;;;;5060612;28;20212;-78
2023/12/04 02:37:54;;;;;;;44.67;40.58;;;;;;;;;;5054546;28;20231;-79
2023/12/04 02:40:21;;;;;;;44.42;39.33;;;;;;;;;;5055852;28;21021;-79
2023/12/04 02:42:50;;;;;;;44.75;40.92;;;;;;;;;;5055902;28;20262;-79
2023/12/04 02:45:17;;;;;;;40.35;36.08;;;;;;;;;;5056046;28;20715;-77
2023/12/04 02:47:44;;;;;;;40.55;36.88;;;;;;;;;;5055791;28;20285;-79
2023/12/04 02:50:11;;;;;;;40.80;36.80;;;;;;;;;;5056500;28;20208;-78
2023/12/04 02:52:38;;;;;;;38.42;34.92;;;;;;;;;;5055901;28;20660;-79
2023/12/04 02:55:06;;;;;;;39.80;36.15;;;;;;;;;;5055909;28;20212;-78
2023/12/04 02:57:33;;;;;;;41.83;37.65;;;;;;;;;;5056241;28;20568;-80
2023/12/04 03:00:01;;;;;;;36.33;33.35;;;;;;;;;;5056728;28;20220;-79
2023/12/04 03:02:28;;;;;;;34.42;31.92;;;;;;;;;;5056032;28;20204;-78
2023/12/04 03:04:55;;;;;;;43.80;39.65;;;;;;;;;;5056351;28;20204;-78
2023/12/04 03:07:24;;;;;;;42.40;38.65;;;;;;;;;;5056213;28;20232;-78
2023/12/04 03:09:51;;;;;;;37.60;34.50;;;;;;;;;;5056070;28;20212;-78
2023/12/04 03:12:18;;;;;;;35.70;32.72;;;;;;;;;;5056437;28;20665;-79
2023/12/04 03:14:45;;;;;;;39.90;35.97;;;;;;;;;;5055740;28;20277;-79
2023/12/04 03:17:13;;;;;;;36.97;33.90;;;;;;;;;;5056296;28;20258;-78
2023/12/04 03:19:40;;;;;;;39.88;36.08;;;;;;;;;;5056222;28;20665;-79
2023/12/04 03:22:07;;;;;;;39.92;36.05;;;;;;;;;;5056154;28;20220;-79
2023/12/04 03:24:34;;;;;;;41.25;37.72;;;;;;;;;;5056050;28;20208;-79
2023/12/04 03:27:02;;;;;;;41.05;37.45;;;;;;;;;;5056730;28;20642;-78
2023/12/04 03:29:29;;;;;;;30.98;28.88;;;;;;;;;;5057264;28;20204;-80
2023/12/04 03:31:56;;;;;;;40.05;36.50;;;;;;;;;;5056608;28;20230;-80
2023/12/04 03:34:24;;;;;;;41.80;37.95;;;;;;;;;;5055540;28;20664;-79
2023/12/04 03:36:51;;;;;;;39.53;36.40;;;;;;;;;;5054915;28;20282;-79
2023/12/04 03:39:18;;;;;;;34.92;32.20;;;;;;;;;;5055443;28;20197;-79
2023/12/04 03:41:46;;;;;;;38.70;35.15;;;;;;;;;;5055806;28;20232;-79
2023/12/04 03:44:13;;;;;;;39.80;36.47;;;;;;;;;;5054574;28;20208;-77
2023/12/04 03:46:40;;;;;;;40.83;37.00;;;;;;;;;;5055834;28;20231;-79
2023/12/04 03:49:07;;;;;;;35.17;32.13;;;;;;;;;;5054887;28;20200;-78
2023/12/04 03:51:35;;;;;;;37.17;34.20;;;;;;;;;;5054856;28;20257;-78
2023/12/04 03:54:02;;;;;;;34.55;31.85;;;;;;;;;;5054321;28;20274;-79
2023/12/04 03:56:29;;;;;;;36.15;33.08;;;;;;;;;;5054352;28;20224;-78
2023/12/04 03:58:56;;;;;;;37.80;34.40;;;;;;;;;;5054960;28;20283;-80
2023/12/04 04:01:23;;;;;;;36.53;33.13;;;;;;;;;;5056112;28;20224;-79
2023/12/04 04:03:50;;;;;;;36.47;33.50;;;;;;;;;;5054231;28;20605;-78
2023/12/04 04:06:17;;;;;;;34.13;31.23;;;;;;;;;;5054898;28;20193;-79
2023/12/04 04:08:45;;;;;;;29.35;27.17;;;;;;;;;;5054813;28;20204;-78
2023/12/04 04:11:12;;;;;;;34.10;31.00;;;;;;;;;;5055134;28;20204;-79
2023/12/04 04:13:39;;;;;;;35.08;31.60;;;;;;;;;;5054644;28;20718;-78
2023/12/04 04:16:07;;;;;;;33.35;30.15;;;;;;;;;;5054309;28;20208;-79
2023/12/04 04:18:34;;;;;;;32.95;29.65;;;;;;;;;;5054883;28;20204;-78
2023/12/04 04:21:02;;;;;;;30.90;28.30;;;;;;;;;;5054469;28;20254;-79
2023/12/04 04:23:29;;;;;;;33.53;30.20;;;;;;;;;;5054928;28;20262;-79
2023/12/04 04:25:58;;;;;;;30.90;28.20;;;;;;;;;;5054577;28;20216;-79
2023/12/04 04:28:25;;;;;;;31.35;28.75;;;;;;;;;;5054843;28;20576;-79
2023/12/04 04:30:52;;;;;;;27.83;25.65;;;;;;;;;;5054106;28;20250;-78
2023/12/04 04:33:19;;;;;;;34.08;30.92;;;;;;;;;;5058738;28;20245;-78
2023/12/04 04:35:46;;;;;;;31.65;28.95;;;;;;;;;;5073441;28;20925;-78
2023/12/04 04:38:13;;;;;;;31.23;28.52;;;;;;;;;;5065098;28;20235;-80
2023/12/04 04:40:43;;;;;;;30.25;27.80;;;;;;;;;;5053404;28;20227;-79
2023/12/04 04:43:11;;;;;;;29.98;27.48;;;;;;;;;;5060058;28;20648;-78
2023/12/04 04:45:38;;;;;;;28.27;26.13;;;;;;;;;;5073845;28;20219;-77
2023/12/04 04:48:05;;;;;;;31.05;28.52;;;;;;;;;;5073561;28;20583;-77
2023/12/04 04:50:32;;;;;;;26.45;24.65;;;;;;;;;;5056372;28;20208;-79
2023/12/04 04:52:59;;;;;;;28.38;25.80;;;;;;;;;;5065220;28;20211;-78
2023/12/04 04:55:26;;;;;;;33.45;30.33;;;;;;;;;;5064481;28;20645;-78
2023/12/04 04:57:54;;;;;;;31.63;28.92;;;;;;;;;;5054358;28;20228;-79
2023/12/04 05:00:22;;;;;;;31.25;28.60;;;;;;;;;;5053051;28;20228;-79
2023/12/04 05:02:49;;;;;;;31.42;29.10;;;;;;;;;;5053521;28;20273;-79
2023/12/04 05:05:16;;;;;;;29.83;27.42;;;;;;;;;;5053141;28;20709;-78
2023/12/04 05:07:43;;;;;;;30.65;28.17;;;;;;;;;;5053695;28;20587;-78
2023/12/04 05:16:19;;;;;;;31.25;28.08;;;;;;;;;;5052680;28;20251;-78
2023/12/04 05:18:46;;;;;;;31.02;28.33;;;;;;;;;;5053259;28;20273;-78
2023/12/04 05:21:13;;;;;;;28.35;26.05;;;;;;;;;;5051691;28;20228;-79
2023/12/04 05:23:40;;;;;;;27.02;24.92;;;;;;;;;;5051755;28;20212;-79
2023/12/04 05:29:10;;;;;;;30.10;27.60;;;;;;;;;;5051203;28;20186;-79
2023/12/04 05:31:39;;;;;;;32.38;29.90;;;;;;;;;;5053433;28;20204;-77
2023/12/04 05:34:06;;;;;;;31.27;28.70;;;;;;;;;;5051636;28;20204;-78
2023/12/04 05:36:33;;;;;;;29.50;27.00;;;;;;;;;;5053890;28;20220;-78
2023/12/04 05:39:00;;;;;;;32.72;29.85;;;;;;;;;;5058303;28;20196;-78
2023/12/04 05:41:42;;;;;;;29.98;27.77;;;;;;;;;;5072664;28;20235;-80
2023/12/04 05:44:09;;;;;;;25.52;23.63;;;;;;;;;;5071309;28;20994;-79
2023/12/04 05:46:36;;;;;;;26.40;24.33;;;;;;;;;;5074191;28;20276;-80
2023/12/04 05:49:07;;;;;;;29.83;27.17;;;;;;;;;;5073073;28;20261;-80
2023/12/04 05:51:34;;;;;;;28.83;26.48;;;;;;;;;;5074335;28;20529;-78
2023/12/04 05:57:05;;;;;;;26.33;24.40;;;;;;;;;;5052093;28;20230;-79
2023/12/04 05:59:32;;;;;;;29.70;27.00;;;;;;;;;;5053541;28;20664;-80
2023/12/04 06:01:59;;;;;;;30.17;27.70;;;;;;;;;;5053314;28;20232;-78
2023/12/04 06:04:28;;;;;;;30.75;28.08;;;;;;;;;;5053117;28;20231;-78
2023/12/04 06:06:54;;;;;;;29.17;26.60;;;;;;;;;;5053579;28;20258;-78
2023/12/04 06:09:21;;;;;;;28.55;26.23;;;;;;;;;;5053247;28;20204;-79
2023/12/04 06:11:49;;;;;;;27.38;25.30;;;;;;;;;;5069889;28;20230;-78
2023/12/04 06:14:16;;;;;;;29.92;27.40;;;;;;;;;;5053324;28;20212;-79
2023/12/04 06:16:43;;;;;;;29.60;27.20;;;;;;;;;;5054213;28;20220;-78
2023/12/04 06:19:10;;;;;;;29.70;27.17;;;;;;;;;;5054125;28;20215;-79
2023/12/04 06:21:38;;;;;;;28.08;25.77;;;;;;;;;;5053716;28;20224;-78
2023/12/04 06:24:08;;;;;;;30.65;27.98;;;;;;;;;;5060663;28;20303;-79
2023/12/04 06:26:37;;;;;;;29.05;26.58;;;;;;;;;;5073678;28;20227;-79
2023/12/04 06:29:04;;;;;;;26.40;24.02;;;;;;;;;;5073293;28;20253;-78
2023/12/04 06:31:31;;;;;;;31.20;28.50;;;;;;;;;;5073357;28;20609;-78
2023/12/04 06:33:58;;;;;;;29.08;26.75;;;;;;;;;;5072071;28;20191;-78
2023/12/04 06:36:26;;;;;;;32.30;29.30;;;;;;;;;;5073369;28;20265;-80
2023/12/04 06:38:55;;;;;;;28.40;26.08;;;;;;;;;;5072866;28;20705;-78
2023/12/04 06:41:22;;;;;;;27.63;25.52;;;;;;;;;;5072977;28;20223;-79
2023/12/04 06:43:50;;;;;;;31.17;28.58;;;;;;;;;;5072767;28;20207;-82
2023/12/04 06:46:17;;;;;;;28.67;26.17;;;;;;;;;;5072789;28;20675;-79
2023/12/04 06:48:45;;;;;;;28.90;26.50;;;;;;;;;;5073147;28;20218;-78
2023/12/04 06:51:12;;;;;;;29.63;27.00;;;;;;;;;;5072930;28;20208;-78
2023/12/04 06:53:39;;;;;;;30.55;27.85;;;;;;;;;;5072815;28;20226;-78
2023/12/04 06:56:08;;;;;;;29.40;27.10;;;;;;;;;;5072434;28;20208;-79
2023/12/04 06:58:35;;;;;;;28.50;26.15;;;;;;;;;;5073019;28;20261;-79
2023/12/04 07:01:02;;;;;;;27.58;25.17;;;;;;;;;;5065796;28;20290;-78
2023/12/04 07:03:29;;;;;;;30.92;28.42;;;;;;;;;;5052511;28;20200;-78
2023/12/04 07:05:56;;;;;;;29.60;27.20;;;;;;;;;;5051888;28;20678;-80
2023/12/04 07:08:23;;;;;;;25.90;23.75;;;;;;;;;;5052390;28;20625;-78
2023/12/04 07:10:50;;;;;;;29.33;26.95;;;;;;;;;;5052578;28;20213;-78
2023/12/04 07:13:19;;;;;;;30.52;28.00;;;;;;;;;;5052820;28;20273;-79
2023/12/04 07:15:46;;;;;;;30.77;28.17;;;;;;;;;;5052518;28;20250;-79
2023/12/04 07:18:13;;;;;;;29.15;26.40;;;;;;;;;;5052406;28;20212;-79
2023/12/04 07:20:40;;;;;;;27.70;25.50;;;;;;;;;;5050700;28;20270;-74
2023/12/04 07:23:07;;;;;;;24.17;22.38;;;;;;;;;;5049973;28;20768;-75
2023/12/04 07:25:34;;;;;;;31.10;28.40;;;;;;;;;;5053239;28;20204;-76
2023/12/04 07:28:01;;;;;;;27.30;25.20;;;;;;;;;;5054083;28;20306;-75
2023/12/04 07:30:29;;;;;;;31.17;28.45;;;;;;;;;;5053931;28;20204;-75
2023/12/04 07:32:56;;;;;;;25.08;23.30;;;;;;;;;;5053697;28;20204;-76
2023/12/04 07:35:23;;;;;;;28.58;26.25;;;;;;;;;;5052779;28;20208;-75
2023/12/04 07:37:50;;;;;;;27.40;25.15;;;;;;;;;;5052572;28;20370;-74
2023/12/04 07:40:17;;;;;;;28.67;26.45;;;;;;;;;;5053527;28;20266;-74
2023/12/04 07:42:44;;;;;;;27.55;25.45;;;;;;;;;;5053667;28;20274;-75
2023/12/04 07:45:12;;;;;;;28.58;26.30;;;;;;;;;;5053267;28;20216;-76
2023/12/04 07:47:40;;;;;;;29.80;27.08;;;;;;;;;;5053975;28;20220;-75
2023/12/04 07:50:08;;;;;;;29.45;27.15;;;;;;;;;;5053814;28;20258;-75
2023/12/04 07:52:35;;;;;;;29.70;27.20;;;;;;;;;;5053714;28;20258;-76
2023/12/04 07:55:02;;;;;;;26.38;24.27;;;;;;;;;;5052836;28;20484;-74
2023/12/04 07:57:29;;;;;;;31.17;28.45;;;;;;;;;;5053529;28;20281;-75
2023/12/04 07:59:55;;;;;;;29.15;26.85;;;;;;;;;;5053507;28;20220;-75
2023/12/04 08:02:22;;;;;;;29.40;27.00;;;;;;;;;;5052894;28;20231;-75
2023/12/04 08:04:51;;;;;;;30.38;27.63;;;;;;;;;;5052425;28;20656;-74
2023/12/04 08:07:18;;;;;;;30.73;27.52;;;;;;;;;;5053169;28;20227;-76
2023/12/04 08:09:45;;;;;;;30.27;27.65;;;;;;;;;;5053240;28;20262;-75
2023/12/04 08:12:12;;;;;;;29.42;27.00;;;;;;;;;;5053156;28;20216;-75
2023/12/04 08:14:39;;;;;;;28.80;26.55;;;;;;;;;;5052260;28;20306;-74
2023/12/04 08:17:07;;;;;;;32.38;29.60;;;;;;;;;;5053375;28;20232;-75
2023/12/04 08:19:34;;;;;;;29.27;26.88;;;;;;;;;;5053059;28;20199;-75
2023/12/04 08:22:02;;;;;;;27.02;25.02;;;;;;;;;;5052759;28;20766;-74
2023/12/04 08:24:29;;;;;;;29.88;27.23;;;;;;;;;;5052432;28;20266;-75
2023/12/04 08:26:58;;;;;;;29.77;27.30;;;;;;;;;;5052823;28;20234;-75
2023/12/04 08:29:25;;;;;;;30.88;28.13;;;;;;;;;;5052998;28;20261;-74
2023/12/04 08:31:52;;;;;;;29.98;27.48;;;;;;;;;;5053709;28;20353;-75
2023/12/04 08:34:19;;;;;;;29.33;26.88;;;;;;;;;;5052116;28;20218;-79
2023/12/04 08:36:46;;;;;;;27.60;25.60;;;;;;;;;;5054687;28;20274;-79
2023/12/04 08:39:14;;;;;;;27.00;24.90;;;;;;;;;;5055440;28;20265;-78
2023/12/04 08:41:41;;;;;;;28.92;26.45;;;;;;;;;;5053596;28;20230;-79
2023/12/04 08:44:09;;;;;;;31.60;28.75;;;;;;;;;;5053792;28;20564;-78
2023/12/04 08:46:36;;;;;;;27.15;24.98;;;;;;;;;;5055410;28;20224;-79
2023/12/04 08:49:04;;;;;;;30.80;28.20;;;;;;;;;;5054456;28;20212;-78
2023/12/04 08:51:31;;;;;;;30.52;27.92;;;;;;;;;;5053612;28;20212;-78
2023/12/04 08:53:58;;;;;;;30.80;28.50;;;;;;;;;;5053192;28;20258;-78
2023/12/04 08:56:26;;;;;;;29.95;27.40;;;;;;;;;;5053608;28;20232;-78
2023/12/04 08:58:53;;;;;;;30.98;28.48;;;;;;;;;;5053618;28;20204;-78
2023/12/04 09:01:20;;;;;;;25.75;23.75;;;;;;;;;;5052952;28;20714;-79
2023/12/04 09:03:47;;;;;;;30.60;27.90;;;;;;;;;;5053552;28;20212;-78
2023/12/04 09:06:15;;;;;;;30.75;28.13;;;;;;;;;;5053623;28;20204;-79
2023/12/04 09:08:42;;;;;;;29.75;27.10;;;;;;;;;;5053722;28;21102;-79
2023/12/04 09:11:09;;;;;;;29.00;26.60;;;;;;;;;;5053623;28;20589;-77
2023/12/04 09:13:38;;;;;;;27.83;25.50;;;;;;;;;;5053848;28;20223;-79
2023/12/04 09:16:05;;;;;;;28.15;25.88;;;;;;;;;;5053494;28;20211;-79
2023/12/04 09:18:32;;;;;;;29.02;26.73;;;;;;;;;;5053395;28;20212;-79
2023/12/04 09:20:59;;;;;;;27.95;25.75;;;;;;;;;;5053334;28;20216;-78
2023/12/04 09:23:26;;;;;;;30.75;28.17;;;;;;;;;;5053775;28;20803;-74
2023/12/04 09:25:53;;;;;;;29.95;27.60;;;;;;;;;;5051566;28;20703;-79
2023/12/04 09:28:20;;;;;;;27.83;25.83;;;;;;;;;;5052547;28;20228;-75
2023/12/04 09:30:49;;;;;;;30.02;27.83;;;;;;;;;;5051684;28;20216;-75
2023/12/04 09:33:16;;;;;;;29.48;27.27;;;;;;;;;;5051900;28;20196;-76
2023/12/04 09:35:43;;;;;;;30.70;28.27;;;;;;;;;;5050592;28;20660;-76
2023/12/04 09:38:11;;;;;;;27.92;25.95;;;;;;;;;;5050634;28;20642;-76
2023/12/04 09:40:38;;;;;;;30.73;28.33;;;;;;;;;;5051239;28;20238;-76
2023/12/04 09:43:07;;;;;;;31.33;29.13;;;;;;;;;;5050858;28;20273;-74
2023/12/04 09:45:34;;;;;;;28.92;26.83;;;;;;;;;;5050867;28;20204;-76
2023/12/04 09:48:03;;;;;;;29.15;27.05;;;;;;;;;;5050666;28;21023;-75
2023/12/04 09:50:30;;;;;;;28.25;26.00;;;;;;;;;;5051277;28;20668;-75
2023/12/04 09:52:59;;;;;;;28.55;26.25;;;;;;;;;;5051414;28;20200;-77
2023/12/04 09:55:26;;;;;;;29.25;26.98;;;;;;;;;;5050727;28;20577;-75
2023/12/04 09:57:53;;;;;;;26.13;24.23;;;;;;;;;;5050909;28;20236;-75
2023/12/04 10:00:21;;;;;;;28.70;25.88;;;;;;;;;;5051406;28;20544;-76
2023/12/04 10:02:48;;;;;;;27.38;25.38;;;;;;;;;;5051267;28;20216;-76
2023/12/04 10:05:17;;;;;;;27.63;25.42;;;;;;;;;;5050436;28;20207;-75
2023/12/04 10:07:44;;;;;;;29.70;27.40;;;;;;;;;;5050975;28;20231;-75
2023/12/04 10:10:11;;;;;;;30.17;27.95;;;;;;;;;;5051112;28;20259;-75
2023/12/04 10:12:38;;;;;;;27.88;25.80;;;;;;;;;;5051147;28;20611;-75
2023/12/04 10:15:06;;;;;;;28.20;25.95;;;;;;;;;;5050504;28;20270;-75
2023/12/04 10:17:37;;;;;;;28.65;26.45;;;;;;;;;;5050405;28;20239;-75
2023/12/04 10:20:11;;;;;;;26.45;24.38;;;;;;;;;;5051051;28;20291;-76
2023/12/04 10:22:40;;;;;;;30.10;27.50;;;;;;;;;;5051112;28;20303;-76
2023/12/04 10:25:15;;;;;;;28.30;26.25;;;;;;;;;;5050179;28;20679;-75
2023/12/04 10:27:43;;;;;;;29.40;27.10;;;;;;;;;;5050445;28;20245;-75
2023/12/04 10:30:12;;;;;;;27.52;25.42;;;;;;;;;;5050486;28;20672;-76
2023/12/04 10:32:41;;;;;;;29.15;26.75;;;;;;;;;;5050492;28;20269;-75
2023/12/04 10:35:09;;;;;;;31.60;29.10;;;;;;;;;;5050210;28;20302;-75
2023/12/04 10:37:38;;;;;;;30.25;27.90;;;;;;;;;;5050882;28;20230;-76
2023/12/04 10:40:09;;;;;;;29.42;27.02;;;;;;;;;;5050831;28;20257;-75
2023/12/04 10:42:36;;;;;;;31.25;28.65;;;;;;;;;;5050646;28;20633;-76
2023/12/04 10:45:06;;;;;;;29.45;27.05;;;;;;;;;;5050075;28;20250;-75
2023/12/04 10:47:34;;;;;;;25.20;23.48;;;;;;;;;;5050330;28;20728;-75
2023/12/04 10:50:02;;;;;;;28.05;25.75;;;;;;;;;;5050769;28;20266;-75
2023/12/04 10:52:30;;;;;;;30.00;27.70;;;;;;;;;;5050163;28;20750;-76
2023/12/04 10:54:58;;;;;;;27.25;25.25;;;;;;;;;;5049971;28;20684;-76
2023/12/04 10:57:28;;;;;;;26.45;24.52;;;;;;;;;;5051087;28;20247;-75
2023/12/04 10:59:57;;;;;;;29.38;27.05;;;;;;;;;;5053945;28;20200;-75
2023/12/04 11:02:27;;;;;;;31.08;28.35;;;;;;;;;;5054215;28;20247;-75
2023/12/04 11:04:56;;;;;;;29.67;27.30;;;;;;;;;;5053901;28;20210;-74
2023/12/04 11:07:27;;;;;;;29.27;27.08;;;;;;;;;;5054062;28;20239;-75
2023/12/04 11:09:55;;;;;;;30.02;27.65;;;;;;;;;;5055961;28;20291;-75
2023/12/04 11:12:24;;;;;;;28.75;26.58;;;;;;;;;;5054503;28;20212;-75
2023/12/04 11:14:55;;;;;;;28.77;26.42;;;;;;;;;;5053732;28;20258;-75
2023/12/04 11:17:24;;;;;;;29.88;27.42;;;;;;;;;;5054306;28;20228;-75
2023/12/04 11:19:55;;;;;;;29.40;27.15;;;;;;;;;;5054617;28;20556;-75
2023/12/04 11:22:22;;;;;;;25.85;24.05;;;;;;;;;;5053659;28;20228;-75
2023/12/04 11:24:50;;;;;;;28.40;26.27;;;;;;;;;;5053333;28;20277;-75
2023/12/04 11:27:17;;;;;;;30.33;27.92;;;;;;;;;;5053974;28;20301;-75
2023/12/04 11:29:45;;;;;;;28.48;26.40;;;;;;;;;;5053771;28;20296;-75
2023/12/04 11:32:16;;;;;;;26.85;24.77;;;;;;;;;;5054173;28;20208;-74
2023/12/04 11:34:49;;;;;;;25.95;24.02;;;;;;;;;;5053214;28;20212;-74
2023/12/04 11:37:16;;;;;;;27.75;25.65;;;;;;;;;;5068876;28;20583;-74
2023/12/04 11:39:43;;;;;;;24.88;23.17;;;;;;;;;;5065018;28;20711;-75
2023/12/04 11:42:12;;;;;;;27.75;25.85;;;;;;;;;;5053820;28;20575;-75
2023/12/04 11:44:42;;;;;;;31.00;28.77;;;;;;;;;;5056538;28;20208;-75
2023/12/04 11:47:09;;;;;;;30.23;28.25;;;;;;;;;;5057732;28;20231;-75
2023/12/04 11:49:38;;;;;;;32.40;30.17;;;;;;;;;;5069539;28;20672;-75
2023/12/04 11:52:06;;;;;;;30.33;28.42;;;;;;;;;;5067906;28;20210;-74
2023/12/04 11:54:56;;;;;;;32.60;30.27;;;;;;;;;;5073140;28;20180;-74
2023/12/04 11:57:25;;;;;;;30.92;28.63;;;;;;;;;;5059127;28;20884;-73
2023/12/04 11:59:52;;;;;;;30.08;28.15;;;;;;;;;;5059964;28;20866;-74
2023/12/04 12:02:19;;;;;;;29.70;27.60;;;;;;;;;;5051852;28;20640;-74
2023/12/04 12:04:48;;;;;;;31.88;29.67;;;;;;;;;;5052592;28;20258;-73
2023/12/04 12:07:16;;;;;;;30.13;27.70;;;;;;;;;;5053092;28;20220;-74
2023/12/04 12:09:43;;;;;;;28.70;26.70;;;;;;;;;;5052465;28;20208;-74
2023/12/04 12:12:10;;;;;;;31.13;29.00;;;;;;;;;;5053181;28;20212;-75
2023/12/04 12:14:38;;;;;;;27.75;25.95;;;;;;;;;;5052471;28;20594;-74
2023/12/04 12:17:05;;;;;;;32.38;30.17;;;;;;;;;;5053176;28;20285;-74
2023/12/04 12:19:32;;;;;;;29.27;27.55;;;;;;;;;;5053184;28;20235;-75
2023/12/04 12:22:00;;;;;;;31.00;29.00;;;;;;;;;;5052460;28;20258;-74
2023/12/04 12:24:27;;;;;;;29.70;27.58;;;;;;;;;;5052307;28;20769;-73
2023/12/04 12:26:55;;;;;;;32.47;30.48;;;;;;;;;;5052375;28;21017;-73
2023/12/04 12:29:22;;;;;;;33.25;31.25;;;;;;;;;;5052656;28;20734;-75
2023/12/04 12:31:49;;;;;;;29.05;27.30;;;;;;;;;;5053321;28;20281;-76
2023/12/04 12:34:16;;;;;;;27.30;25.60;;;;;;;;;;5051970;28;20207;-76
2023/12/04 12:36:43;;;;;;;24.63;23.02;;;;;;;;;;5052711;28;20716;-77
2023/12/04 12:39:12;;;;;;;28.48;26.45;;;;;;;;;;5053757;28;20212;-77
2023/12/04 12:41:39;;;;;;;25.50;23.70;;;;;;;;;;5053286;28;20208;-73
2023/12/04 12:44:06;;;;;;;29.52;27.30;;;;;;;;;;5051306;28;20236;-74
2023/12/04 12:46:33;;;;;;;27.80;25.88;;;;;;;;;;5052330;28;20273;-74
2023/12/04 12:49:00;;;;;;;25.77;24.08;;;;;;;;;;5052271;28;20208;-75
2023/12/04 12:51:27;;;;;;;27.65;25.73;;;;;;;;;;5050927;28;20212;-75
2023/12/04 12:53:54;;;;;;;25.02;23.30;;;;;;;;;;5051490;28;20266;-74
2023/12/04 12:56:22;;;;;;;27.55;25.30;;;;;;;;;;5052153;28;20254;-73
2023/12/04 12:58:49;;;;;;;26.17;24.38;;;;;;;;;;5052394;28;20208;-74
2023/12/04 13:01:17;;;;;;;27.02;25.13;;;;;;;;;;5051856;28;20622;-74
2023/12/04 13:03:47;;;;;;;26.70;24.60;;;;;;;;;;5051387;28;20228;-74
2023/12/04 13:06:14;;;;;;;26.17;24.27;;;;;;;;;;5051751;28;20572;-75
2023/12/04 13:08:41;;;;;;;27.55;25.25;;;;;;;;;;5051836;28;20223;-74
2023/12/04 13:11:08;;;;;;;27.25;25.05;;;;;;;;;;5051934;28;20273;-73
2023/12/04 13:13:36;;;;;;;26.00;24.25;;;;;;;;;;5051769;28;20211;-73
2023/12/04 13:16:04;;;;;;;26.85;24.75;;;;;;;;;;5051211;28;20250;-73
2023/12/04 13:18:35;;;;;;;27.75;25.60;;;;;;;;;;5051577;28;20212;-73
2023/12/04 13:21:02;;;;;;;24.38;22.65;;;;;;;;;;5051320;28;20246;-73
2023/12/04 13:23:29;;;;;;;26.13;24.17;;;;;;;;;;5050780;28;20248;-74
2023/12/04 13:25:56;;;;;;;26.48;24.48;;;;;;;;;;5050016;28;20219;-79
2023/12/04 13:28:23;;;;;;;28.02;25.83;;;;;;;;;;5051143;28;20695;-73
2023/12/04 13:30:53;;;;;;;27.77;25.63;;;;;;;;;;5050678;28;20212;-72
2023/12/04 13:33:20;;;;;;;27.60;25.58;;;;;;;;;;5051376;28;20727;-74
2023/12/04 13:35:47;;;;;;;28.38;26.25;;;;;;;;;;5050276;28;20208;-74
2023/12/04 13:38:14;;;;;;;28.50;26.27;;;;;;;;;;5051466;28;20278;-74
2023/12/04 13:40:49;;;;;;;28.80;26.73;;;;;;;;;;5051224;28;20691;-75
2023/12/04 13:46:06;;;;;;;27.52;25.52;;;;;;;;;;5050583;28;20564;-72
2023/12/04 13:48:33;;;;;;;29.05;26.95;;;;;;;;;;5051514;28;20285;-73
2023/12/04 13:51:00;;;;;;;28.17;26.02;;;;;;;;;;5051420;28;20207;-73
2023/12/04 13:53:30;;;;;;;25.73;23.80;;;;;;;;;;5057963;28;20212;-74
2023/12/04 13:56:12;;;;;;;25.55;23.75;;;;;;;;;;5065341;28;20214;-74
2023/12/04 13:58:43;;;;;;;28.63;26.38;;;;;;;;;;5050408;28;20227;-73
2023/12/04 14:01:14;;;;;;;28.02;25.95;;;;;;;;;;5050198;28;20193;-74
2023/12/04 14:03:41;;;;;;;28.30;26.27;;;;;;;;;;5050704;28;20302;-73
2023/12/04 14:06:08;;;;;;;28.90;26.65;;;;;;;;;;5049963;28;20216;-73
2023/12/04 14:08:36;;;;;;;27.00;25.17;;;;;;;;;;5050704;28;20616;-73
2023/12/04 14:11:03;;;;;;;25.52;23.85;;;;;;;;;;5050925;28;20208;-73
2023/12/04 14:13:30;;;;;;;29.50;27.27;;;;;;;;;;5050853;28;20212;-74
2023/12/04 14:15:57;;;;;;;28.60;26.40;;;;;;;;;;5050620;28;20208;-73
2023/12/04 14:18:26;;;;;;;26.55;24.67;;;;;;;;;;5051531;28;20773;-76
2023/12/04 14:20:53;;;;;;;28.92;26.77;;;;;;;;;;5051444;28;20660;-75
2023/12/04 14:23:20;;;;;;;30.45;28.02;;;;;;;;;;5051737;28;20224;-76
2023/12/04 14:25:47;;;;;;;27.70;25.65;;;;;;;;;;5050726;28;20208;-76
2023/12/04 14:28:14;;;;;;;27.65;25.65;;;;;;;;;;5051137;28;20231;-73
2023/12/04 14:30:41;;;;;;;25.52;23.67;;;;;;;;;;5050353;28;20676;-75
2023/12/04 14:33:09;;;;;;;26.25;24.35;;;;;;;;;;5052700;28;20215;-74